sensor_id;sensor_type;location;lat;lon;timestamp;P1;durP1;ratioP1;P2;durP2;ratioP2
10250;SDS011;5170;58.692;12.478;2023-04-03T00:00:39;3.53;;;1.13;;
10250;SDS011;5170;58.692;12.478;2023-04-03T00:03:26;2.93;;;0.97;;
10250;SDS011;5170;58.692;12.478;2023-04-03T00:06:15;3.90;;;1.37;;
10250;SDS011;5170;58.692;12.478;2023-04-03T00:09:03;2.20;;;0.93;;
10250;SDS011;5170;58.692;12.478;2023-04-03T00:11:51;3.37;;;0.97;;
10250;SDS011;5170;58.692;12.478;2023-04-03T00:14:39;2.47;;;0.90;;
10250;SDS011;5170;58.692;12.478;2023-04-03T00:17:26;1.50;;;0.83;;
10250;SDS011;5170;58.692;12.478;2023-04-03T00:20:14;5.77;;;1.00;;
10250;SDS011;5170;58.692;12.478;2023-04-03T00:23:03;1.23;;;1.13;;
10250;SDS011;5170;58.692;12.478;2023-04-03T00:25:51;1.33;;;0.90;;
10250;SDS011;5170;58.692;12.478;2023-04-03T00:28:38;1.27;;;0.70;;
10250;SDS011;5170;58.692;12.478;2023-04-03T00:31:26;3.17;;;0.80;;
10250;SDS011;5170;58.692;12.478;2023-04-03T00:34:14;5.30;;;1.00;;
10250;SDS011;5170;58.692;12.478;2023-04-03T00:37:02;1.47;;;0.80;;
10250;SDS011;5170;58.692;12.478;2023-04-03T00:39:51;2.57;;;0.97;;
10250;SDS011;5170;58.692;12.478;2023-04-03T00:42:39;3.17;;;1.10;;
10250;SDS011;5170;58.692;12.478;2023-04-03T00:45:29;2.60;;;1.30;;
10250;SDS011;5170;58.692;12.478;2023-04-03T00:48:18;4.13;;;1.40;;
10250;SDS011;5170;58.692;12.478;2023-04-03T00:51:08;8.03;;;1.40;;
10250;SDS011;5170;58.692;12.478;2023-04-03T00:53:58;3.50;;;1.53;;
10250;SDS011;5170;58.692;12.478;2023-04-03T00:56:47;5.03;;;2.03;;
10250;SDS011;5170;58.692;12.478;2023-04-03T00:59:36;5.23;;;1.50;;
10250;SDS011;5170;58.692;12.478;2023-04-03T01:02:25;6.50;;;2.17;;
10250;SDS011;5170;58.692;12.478;2023-04-03T01:05:13;5.87;;;1.80;;
10250;SDS011;5170;58.692;12.478;2023-04-03T01:08:03;4.37;;;1.40;;
10250;SDS011;5170;58.692;12.478;2023-04-03T01:10:51;3.83;;;1.13;;
10250;SDS011;5170;58.692;12.478;2023-04-03T01:13:40;4.70;;;1.47;;
10250;SDS011;5170;58.692;12.478;2023-04-03T01:16:28;4.17;;;1.13;;
10250;SDS011;5170;58.692;12.478;2023-04-03T01:19:17;5.23;;;1.60;;
10250;SDS011;5170;58.692;12.478;2023-04-03T01:22:08;2.50;;;2.13;;
10250;SDS011;5170;58.692;12.478;2023-04-03T01:24:58;3.33;;;1.60;;
10250;SDS011;5170;58.692;12.478;2023-04-03T01:27:46;6.03;;;1.57;;
10250;SDS011;5170;58.692;12.478;2023-04-03T01:30:35;4.63;;;1.90;;
10250;SDS011;5170;58.692;12.478;2023-04-03T01:33:28;3.07;;;1.23;;
10250;SDS011;5170;58.692;12.478;2023-04-03T01:36:17;3.00;;;1.57;;
10250;SDS011;5170;58.692;12.478;2023-04-03T01:39:06;6.47;;;1.50;;
10250;SDS011;5170;58.692;12.478;2023-04-03T01:41:53;3.13;;;1.30;;
10250;SDS011;5170;58.692;12.478;2023-04-03T01:44:41;4.83;;;1.10;;
10250;SDS011;5170;58.692;12.478;2023-04-03T01:47:29;2.53;;;1.00;;
10250;SDS011;5170;58.692;12.478;2023-04-03T01:50:18;1.87;;;0.67;;
10250;SDS011;5170;58.692;12.478;2023-04-03T01:53:05;1.03;;;0.80;;
10250;SDS011;5170;58.692;12.478;2023-04-03T01:55:53;1.93;;;0.83;;
10250;SDS011;5170;58.692;12.478;2023-04-03T01:58:41;1.47;;;0.67;;
10250;SDS011;5170;58.692;12.478;2023-04-03T02:01:28;1.57;;;1.13;;
10250;SDS011;5170;58.692;12.478;2023-04-03T02:04:16;1.97;;;0.87;;
10250;SDS011;5170;58.692;12.478;2023-04-03T02:07:05;3.47;;;1.20;;
10250;SDS011;5170;58.692;12.478;2023-04-03T02:09:52;4.03;;;1.10;;
10250;SDS011;5170;58.692;12.478;2023-04-03T02:12:40;1.67;;;1.20;;
10250;SDS011;5170;58.692;12.478;2023-04-03T02:15:28;4.43;;;0.97;;
10250;SDS011;5170;58.692;12.478;2023-04-03T02:18:15;3.33;;;1.07;;
10250;SDS011;5170;58.692;12.478;2023-04-03T02:21:03;1.57;;;0.97;;
10250;SDS011;5170;58.692;12.478;2023-04-03T02:23:52;2.03;;;1.03;;
10250;SDS011;5170;58.692;12.478;2023-04-03T02:26:40;1.57;;;0.80;;
10250;SDS011;5170;58.692;12.478;2023-04-03T02:29:28;2.13;;;1.03;;
10250;SDS011;5170;58.692;12.478;2023-04-03T02:32:15;5.23;;;1.13;;
10250;SDS011;5170;58.692;12.478;2023-04-03T02:35:03;6.07;;;1.10;;
10250;SDS011;5170;58.692;12.478;2023-04-03T02:37:51;3.60;;;1.00;;
10250;SDS011;5170;58.692;12.478;2023-04-03T02:40:40;1.13;;;0.87;;
10250;SDS011;5170;58.692;12.478;2023-04-03T02:43:28;3.93;;;0.80;;
10250;SDS011;5170;58.692;12.478;2023-04-03T02:46:15;2.03;;;0.63;;
10250;SDS011;5170;58.692;12.478;2023-04-03T02:49:03;1.20;;;0.70;;
10250;SDS011;5170;58.692;12.478;2023-04-03T02:51:51;1.83;;;0.90;;
10250;SDS011;5170;58.692;12.478;2023-04-03T02:54:39;2.47;;;1.50;;
10250;SDS011;5170;58.692;12.478;2023-04-03T02:57:28;4.43;;;2.00;;
10250;SDS011;5170;58.692;12.478;2023-04-03T03:00:16;4.00;;;1.30;;
10250;SDS011;5170;58.692;12.478;2023-04-03T03:03:04;3.07;;;1.00;;
10250;SDS011;5170;58.692;12.478;2023-04-03T03:06:00;2.37;;;0.93;;
10250;SDS011;5170;58.692;12.478;2023-04-03T03:08:47;1.73;;;0.80;;
10250;SDS011;5170;58.692;12.478;2023-04-03T03:11:35;3.00;;;1.03;;
10250;SDS011;5170;58.692;12.478;2023-04-03T03:14:24;5.13;;;0.90;;
10250;SDS011;5170;58.692;12.478;2023-04-03T03:17:12;2.37;;;0.77;;
10250;SDS011;5170;58.692;12.478;2023-04-03T03:20:00;2.63;;;0.83;;
10250;SDS011;5170;58.692;12.478;2023-04-03T03:22:48;1.67;;;0.60;;
10250;SDS011;5170;58.692;12.478;2023-04-03T03:25:37;1.70;;;1.10;;
10250;SDS011;5170;58.692;12.478;2023-04-03T03:28:25;1.50;;;0.70;;
10250;SDS011;5170;58.692;12.478;2023-04-03T03:31:14;2.13;;;1.00;;
10250;SDS011;5170;58.692;12.478;2023-04-03T03:34:01;2.63;;;1.47;;
10250;SDS011;5170;58.692;12.478;2023-04-03T03:36:49;1.40;;;1.00;;
10250;SDS011;5170;58.692;12.478;2023-04-03T03:39:37;4.07;;;1.77;;
10250;SDS011;5170;58.692;12.478;2023-04-03T03:42:24;2.40;;;1.30;;
10250;SDS011;5170;58.692;12.478;2023-04-03T03:45:12;2.30;;;0.90;;
10250;SDS011;5170;58.692;12.478;2023-04-03T03:48:01;6.23;;;1.93;;
10250;SDS011;5170;58.692;12.478;2023-04-03T03:50:49;1.70;;;0.80;;
10250;SDS011;5170;58.692;12.478;2023-04-03T03:53:37;2.60;;;1.27;;
10250;SDS011;5170;58.692;12.478;2023-04-03T03:56:25;1.80;;;1.23;;
10250;SDS011;5170;58.692;12.478;2023-04-03T03:59:13;2.40;;;1.10;;
10250;SDS011;5170;58.692;12.478;2023-04-03T04:02:02;3.07;;;1.27;;
10250;SDS011;5170;58.692;12.478;2023-04-03T04:04:51;2.23;;;1.10;;
10250;SDS011;5170;58.692;12.478;2023-04-03T04:07:38;3.07;;;1.20;;
10250;SDS011;5170;58.692;12.478;2023-04-03T04:10:26;1.83;;;0.93;;
10250;SDS011;5170;58.692;12.478;2023-04-03T04:13:14;3.13;;;1.40;;
10250;SDS011;5170;58.692;12.478;2023-04-03T04:16:01;1.20;;;1.00;;
10250;SDS011;5170;58.692;12.478;2023-04-03T04:18:49;2.17;;;1.00;;
10250;SDS011;5170;58.692;12.478;2023-04-03T04:21:38;1.90;;;1.13;;
10250;SDS011;5170;58.692;12.478;2023-04-03T04:24:26;5.97;;;1.40;;
10250;SDS011;5170;58.692;12.478;2023-04-03T04:27:14;6.93;;;2.67;;
10250;SDS011;5170;58.692;12.478;2023-04-03T04:30:02;4.37;;;1.80;;
10250;SDS011;5170;58.692;12.478;2023-04-03T04:32:50;3.43;;;1.67;;
10250;SDS011;5170;58.692;12.478;2023-04-03T04:35:37;1.23;;;0.90;;
10250;SDS011;5170;58.692;12.478;2023-04-03T04:38:26;6.37;;;1.57;;
10250;SDS011;5170;58.692;12.478;2023-04-03T04:41:14;1.10;;;1.00;;
10250;SDS011;5170;58.692;12.478;2023-04-03T04:44:03;6.83;;;1.20;;
10250;SDS011;5170;58.692;12.478;2023-04-03T04:46:50;2.60;;;1.27;;
10250;SDS011;5170;58.692;12.478;2023-04-03T04:49:38;2.40;;;0.87;;
10250;SDS011;5170;58.692;12.478;2023-04-03T04:52:26;2.20;;;0.87;;
10250;SDS011;5170;58.692;12.478;2023-04-03T04:55:15;0.90;;;0.70;;
10250;SDS011;5170;58.692;12.478;2023-04-03T04:58:03;1.27;;;0.73;;
10250;SDS011;5170;58.692;12.478;2023-04-03T05:00:57;1.23;;;0.60;;
10250;SDS011;5170;58.692;12.478;2023-04-03T05:03:45;2.13;;;0.93;;
10250;SDS011;5170;58.692;12.478;2023-04-03T05:06:33;3.23;;;0.87;;
10250;SDS011;5170;58.692;12.478;2023-04-03T05:09:20;1.60;;;0.90;;
10250;SDS011;5170;58.692;12.478;2023-04-03T05:12:10;1.13;;;0.70;;
10250;SDS011;5170;58.692;12.478;2023-04-03T05:14:57;1.30;;;0.70;;
10250;SDS011;5170;58.692;12.478;2023-04-03T05:17:45;5.40;;;0.90;;
10250;SDS011;5170;58.692;12.478;2023-04-03T05:20:33;2.27;;;1.40;;
10250;SDS011;5170;58.692;12.478;2023-04-03T05:23:21;7.83;;;1.07;;
10250;SDS011;5170;58.692;12.478;2023-04-03T05:26:08;7.57;;;1.20;;
10250;SDS011;5170;58.692;12.478;2023-04-03T05:28:57;1.30;;;1.03;;
10250;SDS011;5170;58.692;12.478;2023-04-03T05:31:45;4.07;;;1.10;;
10250;SDS011;5170;58.692;12.478;2023-04-03T05:34:33;5.03;;;1.00;;
10250;SDS011;5170;58.692;12.478;2023-04-03T05:37:20;2.30;;;1.20;;
10250;SDS011;5170;58.692;12.478;2023-04-03T05:40:08;1.87;;;0.93;;
10250;SDS011;5170;58.692;12.478;2023-04-03T05:42:56;4.77;;;1.33;;
10250;SDS011;5170;58.692;12.478;2023-04-03T05:45:46;2.20;;;1.50;;
10250;SDS011;5170;58.692;12.478;2023-04-03T05:48:34;1.67;;;1.27;;
10250;SDS011;5170;58.692;12.478;2023-04-03T05:51:22;3.93;;;1.83;;
10250;SDS011;5170;58.692;12.478;2023-04-03T05:54:12;1.93;;;1.33;;
10250;SDS011;5170;58.692;12.478;2023-04-03T05:57:01;4.43;;;0.90;;
10250;SDS011;5170;58.692;12.478;2023-04-03T05:59:48;5.10;;;1.00;;
10250;SDS011;5170;58.692;12.478;2023-04-03T06:02:38;4.43;;;1.17;;
10250;SDS011;5170;58.692;12.478;2023-04-03T06:05:25;2.53;;;1.30;;
10250;SDS011;5170;58.692;12.478;2023-04-03T06:08:14;2.77;;;1.20;;
10250;SDS011;5170;58.692;12.478;2023-04-03T06:11:01;1.43;;;0.90;;
10250;SDS011;5170;58.692;12.478;2023-04-03T06:13:49;1.53;;;0.80;;
10250;SDS011;5170;58.692;12.478;2023-04-03T06:16:37;9.80;;;2.70;;
10250;SDS011;5170;58.692;12.478;2023-04-03T06:19:26;3.50;;;2.07;;
10250;SDS011;5170;58.692;12.478;2023-04-03T06:22:14;5.67;;;3.03;;
10250;SDS011;5170;58.692;12.478;2023-04-03T06:25:02;3.60;;;2.57;;
10250;SDS011;5170;58.692;12.478;2023-04-03T06:27:50;2.50;;;1.97;;
10250;SDS011;5170;58.692;12.478;2023-04-03T06:30:38;4.10;;;1.60;;
10250;SDS011;5170;58.692;12.478;2023-04-03T06:33:26;3.47;;;2.37;;
10250;SDS011;5170;58.692;12.478;2023-04-03T06:36:15;2.77;;;1.70;;
10250;SDS011;5170;58.692;12.478;2023-04-03T06:39:05;4.83;;;2.00;;
10250;SDS011;5170;58.692;12.478;2023-04-03T06:41:53;4.87;;;3.03;;
10250;SDS011;5170;58.692;12.478;2023-04-03T06:44:41;6.87;;;2.07;;
10250;SDS011;5170;58.692;12.478;2023-04-03T06:47:29;2.30;;;1.93;;
10250;SDS011;5170;58.692;12.478;2023-04-03T06:50:16;2.77;;;1.90;;
10250;SDS011;5170;58.692;12.478;2023-04-03T06:53:05;3.30;;;1.73;;
10250;SDS011;5170;58.692;12.478;2023-04-03T06:55:53;3.57;;;1.80;;
10250;SDS011;5170;58.692;12.478;2023-04-03T06:58:41;3.80;;;1.97;;
10250;SDS011;5170;58.692;12.478;2023-04-03T07:01:29;3.87;;;1.73;;
10250;SDS011;5170;58.692;12.478;2023-04-03T07:04:17;4.20;;;1.63;;
10250;SDS011;5170;58.692;12.478;2023-04-03T07:07:05;5.03;;;2.10;;
10250;SDS011;5170;58.692;12.478;2023-04-03T07:09:54;2.97;;;1.60;;
10250;SDS011;5170;58.692;12.478;2023-04-03T07:12:42;2.50;;;1.57;;
10250;SDS011;5170;58.692;12.478;2023-04-03T07:15:30;1.40;;;1.20;;
10250;SDS011;5170;58.692;12.478;2023-04-03T07:18:18;3.17;;;0.70;;
10250;SDS011;5170;58.692;12.478;2023-04-03T07:21:06;2.37;;;1.23;;
10250;SDS011;5170;58.692;12.478;2023-04-03T07:23:54;2.77;;;1.30;;
10250;SDS011;5170;58.692;12.478;2023-04-03T07:26:43;5.00;;;1.27;;
10250;SDS011;5170;58.692;12.478;2023-04-03T07:29:31;5.90;;;1.33;;
10250;SDS011;5170;58.692;12.478;2023-04-03T07:32:19;1.10;;;0.87;;
10250;SDS011;5170;58.692;12.478;2023-04-03T07:35:07;3.73;;;1.40;;
10250;SDS011;5170;58.692;12.478;2023-04-03T07:37:54;4.93;;;1.00;;
10250;SDS011;5170;58.692;12.478;2023-04-03T07:40:45;1.93;;;0.80;;
10250;SDS011;5170;58.692;12.478;2023-04-03T07:43:34;1.63;;;0.80;;
10250;SDS011;5170;58.692;12.478;2023-04-03T07:46:22;6.33;;;1.07;;
10250;SDS011;5170;58.692;12.478;2023-04-03T07:49:09;1.93;;;1.10;;
10250;SDS011;5170;58.692;12.478;2023-04-03T07:51:57;1.33;;;0.83;;
10250;SDS011;5170;58.692;12.478;2023-04-03T07:54:45;2.10;;;1.00;;
10250;SDS011;5170;58.692;12.478;2023-04-03T07:57:32;1.63;;;0.70;;
10250;SDS011;5170;58.692;12.478;2023-04-03T08:00:22;0.77;;;0.50;;
10250;SDS011;5170;58.692;12.478;2023-04-03T08:03:10;4.93;;;0.83;;
10250;SDS011;5170;58.692;12.478;2023-04-03T08:06:01;0.83;;;0.63;;
10250;SDS011;5170;58.692;12.478;2023-04-03T08:08:49;2.77;;;0.47;;
10250;SDS011;5170;58.692;12.478;2023-04-03T08:11:38;1.80;;;0.70;;
10250;SDS011;5170;58.692;12.478;2023-04-03T08:14:26;0.50;;;0.50;;
10250;SDS011;5170;58.692;12.478;2023-04-03T08:17:15;1.60;;;0.80;;
10250;SDS011;5170;58.692;12.478;2023-04-03T08:20:03;1.63;;;0.27;;
10250;SDS011;5170;58.692;12.478;2023-04-03T08:22:51;1.00;;;0.50;;
10250;SDS011;5170;58.692;12.478;2023-04-03T08:25:39;0.87;;;0.50;;
10250;SDS011;5170;58.692;12.478;2023-04-03T08:28:27;2.53;;;0.90;;
10250;SDS011;5170;58.692;12.478;2023-04-03T08:31:16;3.33;;;0.70;;
10250;SDS011;5170;58.692;12.478;2023-04-03T08:34:05;2.07;;;0.60;;
10250;SDS011;5170;58.692;12.478;2023-04-03T08:36:54;1.37;;;0.80;;
10250;SDS011;5170;58.692;12.478;2023-04-03T08:39:41;2.93;;;0.90;;
10250;SDS011;5170;58.692;12.478;2023-04-03T08:42:33;2.07;;;0.90;;
10250;SDS011;5170;58.692;12.478;2023-04-03T08:45:26;1.37;;;0.60;;
10250;SDS011;5170;58.692;12.478;2023-04-03T08:48:15;1.40;;;0.60;;
10250;SDS011;5170;58.692;12.478;2023-04-03T08:51:08;1.30;;;0.60;;
10250;SDS011;5170;58.692;12.478;2023-04-03T08:54:00;3.73;;;1.33;;
10250;SDS011;5170;58.692;12.478;2023-04-03T08:56:49;1.57;;;0.70;;
10250;SDS011;5170;58.692;12.478;2023-04-03T08:59:37;0.70;;;0.43;;
10250;SDS011;5170;58.692;12.478;2023-04-03T09:02:28;1.03;;;0.50;;
10250;SDS011;5170;58.692;12.478;2023-04-03T09:05:18;0.70;;;0.50;;
10250;SDS011;5170;58.692;12.478;2023-04-03T09:08:11;1.23;;;0.73;;
10250;SDS011;5170;58.692;12.478;2023-04-03T09:11:04;0.77;;;0.50;;
10250;SDS011;5170;58.692;12.478;2023-04-03T09:13:54;0.40;;;0.40;;
10250;SDS011;5170;58.692;12.478;2023-04-03T09:16:46;2.77;;;0.60;;
10250;SDS011;5170;58.692;12.478;2023-04-03T09:19:36;1.40;;;0.70;;
10250;SDS011;5170;58.692;12.478;2023-04-03T09:22:25;5.23;;;0.90;;
10250;SDS011;5170;58.692;12.478;2023-04-03T09:25:15;1.67;;;0.73;;
10250;SDS011;5170;58.692;12.478;2023-04-03T09:28:04;1.90;;;0.80;;
10250;SDS011;5170;58.692;12.478;2023-04-03T09:30:55;1.57;;;0.83;;
10250;SDS011;5170;58.692;12.478;2023-04-03T09:33:42;0.70;;;0.43;;
10250;SDS011;5170;58.692;12.478;2023-04-03T09:36:37;0.87;;;0.60;;
10250;SDS011;5170;58.692;12.478;2023-04-03T09:39:25;1.57;;;0.60;;
10250;SDS011;5170;58.692;12.478;2023-04-03T09:42:16;1.43;;;0.53;;
10250;SDS011;5170;58.692;12.478;2023-04-03T09:45:18;0.70;;;0.40;;
10250;SDS011;5170;58.692;12.478;2023-04-03T09:48:12;3.03;;;0.57;;
10250;SDS011;5170;58.692;12.478;2023-04-03T09:51:03;0.87;;;0.60;;
10250;SDS011;5170;58.692;12.478;2023-04-03T09:53:51;0.60;;;0.40;;
10250;SDS011;5170;58.692;12.478;2023-04-03T09:56:39;1.53;;;0.63;;
10250;SDS011;5170;58.692;12.478;2023-04-03T09:59:28;0.50;;;0.30;;
10250;SDS011;5170;58.692;12.478;2023-04-03T10:05:27;8.00;;;0.73;;
10250;SDS011;5170;58.692;12.478;2023-04-03T10:08:23;0.93;;;0.50;;
10250;SDS011;5170;58.692;12.478;2023-04-03T10:11:12;0.30;;;0.10;;
10250;SDS011;5170;58.692;12.478;2023-04-03T10:14:01;2.03;;;0.40;;
10250;SDS011;5170;58.692;12.478;2023-04-03T10:16:53;0.30;;;0.20;;
10250;SDS011;5170;58.692;12.478;2023-04-03T10:19:44;0.30;;;0.10;;
10250;SDS011;5170;58.692;12.478;2023-04-03T10:22:35;0.97;;;0.40;;
10250;SDS011;5170;58.692;12.478;2023-04-03T10:25:26;4.03;;;0.40;;
10250;SDS011;5170;58.692;12.478;2023-04-03T10:28:18;0.47;;;0.30;;
10250;SDS011;5170;58.692;12.478;2023-04-03T10:31:10;0.40;;;0.40;;
10250;SDS011;5170;58.692;12.478;2023-04-03T10:34:04;0.40;;;0.20;;
10250;SDS011;5170;58.692;12.478;2023-04-03T10:36:53;0.73;;;0.33;;
10250;SDS011;5170;58.692;12.478;2023-04-03T10:39:46;0.90;;;0.20;;
10250;SDS011;5170;58.692;12.478;2023-04-03T10:42:38;0.60;;;0.40;;
10250;SDS011;5170;58.692;12.478;2023-04-03T10:45:30;0.83;;;0.30;;
10250;SDS011;5170;58.692;12.478;2023-04-03T10:48:22;0.60;;;0.30;;
10250;SDS011;5170;58.692;12.478;2023-04-03T10:51:18;0.57;;;0.33;;
10250;SDS011;5170;58.692;12.478;2023-04-03T10:54:11;1.00;;;0.20;;
10250;SDS011;5170;58.692;12.478;2023-04-03T10:57:00;0.60;;;0.40;;
10250;SDS011;5170;58.692;12.478;2023-04-03T10:59:50;0.57;;;0.30;;
10250;SDS011;5170;58.692;12.478;2023-04-03T11:02:39;0.43;;;0.30;;
10250;SDS011;5170;58.692;12.478;2023-04-03T11:05:30;0.40;;;0.20;;
10250;SDS011;5170;58.692;12.478;2023-04-03T11:08:24;0.97;;;0.30;;
10250;SDS011;5170;58.692;12.478;2023-04-03T11:11:15;0.67;;;0.30;;
10250;SDS011;5170;58.692;12.478;2023-04-03T11:14:05;0.60;;;0.20;;
10250;SDS011;5170;58.692;12.478;2023-04-03T11:17:01;1.47;;;0.60;;
10250;SDS011;5170;58.692;12.478;2023-04-03T11:19:52;0.87;;;0.20;;
10250;SDS011;5170;58.692;12.478;2023-04-03T11:22:45;0.83;;;0.30;;
10250;SDS011;5170;58.692;12.478;2023-04-03T11:25:36;0.83;;;0.40;;
10250;SDS011;5170;58.692;12.478;2023-04-03T11:28:24;0.60;;;0.27;;
10250;SDS011;5170;58.692;12.478;2023-04-03T11:31:19;0.30;;;0.20;;
10250;SDS011;5170;58.692;12.478;2023-04-03T11:34:15;3.10;;;0.40;;
10250;SDS011;5170;58.692;12.478;2023-04-03T11:37:11;3.40;;;0.40;;
10250;SDS011;5170;58.692;12.478;2023-04-03T11:40:00;0.87;;;0.40;;
10250;SDS011;5170;58.692;12.478;2023-04-03T11:42:51;0.30;;;0.17;;
10250;SDS011;5170;58.692;12.478;2023-04-03T11:45:49;2.13;;;0.30;;
10250;SDS011;5170;58.692;12.478;2023-04-03T11:48:45;0.47;;;0.13;;
10250;SDS011;5170;58.692;12.478;2023-04-03T11:51:38;0.30;;;0.20;;
10250;SDS011;5170;58.692;12.478;2023-04-03T11:57:45;0.30;;;0.30;;
10250;SDS011;5170;58.692;12.478;2023-04-03T12:00:57;0.40;;;0.40;;
10250;SDS011;5170;58.692;12.478;2023-04-03T12:10:14;4.53;;;0.80;;
10250;SDS011;5170;58.692;12.478;2023-04-03T12:13:12;3.70;;;0.63;;
10250;SDS011;5170;58.692;12.478;2023-04-03T12:16:03;0.47;;;0.40;;
10250;SDS011;5170;58.692;12.478;2023-04-03T12:18:55;0.97;;;0.43;;
10250;SDS011;5170;58.692;12.478;2023-04-03T12:24:52;2.87;;;0.30;;
10250;SDS011;5170;58.692;12.478;2023-04-03T12:27:40;3.40;;;1.73;;
10250;SDS011;5170;58.692;12.478;2023-04-03T12:30:29;0.77;;;0.40;;
10250;SDS011;5170;58.692;12.478;2023-04-03T12:33:20;1.03;;;0.50;;
10250;SDS011;5170;58.692;12.478;2023-04-03T12:36:11;3.17;;;0.30;;
10250;SDS011;5170;58.692;12.478;2023-04-03T12:39:11;0.57;;;0.40;;
10250;SDS011;5170;58.692;12.478;2023-04-03T12:42:03;0.33;;;0.20;;
10250;SDS011;5170;58.692;12.478;2023-04-03T12:44:56;0.97;;;0.60;;
10250;SDS011;5170;58.692;12.478;2023-04-03T12:47:45;2.93;;;0.53;;
10250;SDS011;5170;58.692;12.478;2023-04-03T12:50:36;1.23;;;0.27;;
10250;SDS011;5170;58.692;12.478;2023-04-03T12:53:26;0.30;;;0.27;;
10250;SDS011;5170;58.692;12.478;2023-04-03T12:56:19;1.80;;;0.70;;
10250;SDS011;5170;58.692;12.478;2023-04-03T12:59:18;0.63;;;0.40;;
10250;SDS011;5170;58.692;12.478;2023-04-03T13:02:10;1.73;;;0.50;;
10250;SDS011;5170;58.692;12.478;2023-04-03T13:05:05;0.80;;;0.17;;
10250;SDS011;5170;58.692;12.478;2023-04-03T13:07:56;0.40;;;0.20;;
10250;SDS011;5170;58.692;12.478;2023-04-03T13:10:48;4.13;;;0.27;;
10250;SDS011;5170;58.692;12.478;2023-04-03T13:13:37;2.33;;;1.00;;
10250;SDS011;5170;58.692;12.478;2023-04-03T13:16:26;0.77;;;0.50;;
10250;SDS011;5170;58.692;12.478;2023-04-03T13:19:15;3.37;;;0.87;;
10250;SDS011;5170;58.692;12.478;2023-04-03T13:22:04;1.60;;;0.33;;
10250;SDS011;5170;58.692;12.478;2023-04-03T13:24:53;0.40;;;0.30;;
10250;SDS011;5170;58.692;12.478;2023-04-03T13:27:41;2.77;;;0.40;;
10250;SDS011;5170;58.692;12.478;2023-04-03T13:30:30;1.47;;;0.93;;
10250;SDS011;5170;58.692;12.478;2023-04-03T13:33:19;0.60;;;0.40;;
10250;SDS011;5170;58.692;12.478;2023-04-03T13:36:09;2.53;;;0.60;;
10250;SDS011;5170;58.692;12.478;2023-04-03T13:39:04;4.00;;;0.67;;
10250;SDS011;5170;58.692;12.478;2023-04-03T13:41:54;0.47;;;0.27;;
10250;SDS011;5170;58.692;12.478;2023-04-03T13:44:42;1.00;;;0.43;;
10250;SDS011;5170;58.692;12.478;2023-04-03T13:47:37;3.37;;;0.47;;
10250;SDS011;5170;58.692;12.478;2023-04-03T13:50:25;1.53;;;0.47;;
10250;SDS011;5170;58.692;12.478;2023-04-03T13:53:14;1.00;;;0.63;;
10250;SDS011;5170;58.692;12.478;2023-04-03T13:56:06;2.10;;;0.50;;
10250;SDS011;5170;58.692;12.478;2023-04-03T13:58:57;0.60;;;0.30;;
10250;SDS011;5170;58.692;12.478;2023-04-03T14:01:45;0.97;;;0.67;;
10250;SDS011;5170;58.692;12.478;2023-04-03T14:04:44;2.60;;;0.80;;
10250;SDS011;5170;58.692;12.478;2023-04-03T14:07:32;0.93;;;0.40;;
10250;SDS011;5170;58.692;12.478;2023-04-03T14:10:20;0.80;;;0.40;;
10250;SDS011;5170;58.692;12.478;2023-04-03T14:13:09;0.80;;;0.50;;
10250;SDS011;5170;58.692;12.478;2023-04-03T14:16:00;0.60;;;0.30;;
10250;SDS011;5170;58.692;12.478;2023-04-03T14:18:48;0.40;;;0.20;;
10250;SDS011;5170;58.692;12.478;2023-04-03T14:21:36;0.80;;;0.30;;
10250;SDS011;5170;58.692;12.478;2023-04-03T14:24:24;5.60;;;0.43;;
10250;SDS011;5170;58.692;12.478;2023-04-03T14:27:15;2.07;;;0.57;;
10250;SDS011;5170;58.692;12.478;2023-04-03T14:30:03;2.50;;;0.63;;
10250;SDS011;5170;58.692;12.478;2023-04-03T14:32:53;0.70;;;0.60;;
10250;SDS011;5170;58.692;12.478;2023-04-03T14:35:41;1.90;;;0.40;;
10250;SDS011;5170;58.692;12.478;2023-04-03T14:38:29;0.83;;;0.63;;
10250;SDS011;5170;58.692;12.478;2023-04-03T14:41:18;1.20;;;0.60;;
10250;SDS011;5170;58.692;12.478;2023-04-03T14:44:06;1.23;;;0.63;;
10250;SDS011;5170;58.692;12.478;2023-04-03T14:46:53;3.77;;;1.17;;
10250;SDS011;5170;58.692;12.478;2023-04-03T14:49:43;1.70;;;0.80;;
10250;SDS011;5170;58.692;12.478;2023-04-03T14:52:32;1.37;;;0.60;;
10250;SDS011;5170;58.692;12.478;2023-04-03T14:55:21;2.10;;;0.60;;
10250;SDS011;5170;58.692;12.478;2023-04-03T14:58:11;0.70;;;0.40;;
10250;SDS011;5170;58.692;12.478;2023-04-03T15:00:59;1.13;;;0.50;;
10250;SDS011;5170;58.692;12.478;2023-04-03T15:03:47;1.53;;;0.77;;
10250;SDS011;5170;58.692;12.478;2023-04-03T15:06:36;0.93;;;0.50;;
10250;SDS011;5170;58.692;12.478;2023-04-03T15:09:24;0.53;;;0.40;;
10250;SDS011;5170;58.692;12.478;2023-04-03T15:12:12;0.40;;;0.30;;
10250;SDS011;5170;58.692;12.478;2023-04-03T15:15:00;1.70;;;0.53;;
10250;SDS011;5170;58.692;12.478;2023-04-03T15:17:50;0.67;;;0.50;;
10250;SDS011;5170;58.692;12.478;2023-04-03T15:20:39;1.93;;;0.70;;
10250;SDS011;5170;58.692;12.478;2023-04-03T15:23:28;1.97;;;0.63;;
10250;SDS011;5170;58.692;12.478;2023-04-03T15:26:16;1.63;;;0.77;;
10250;SDS011;5170;58.692;12.478;2023-04-03T15:29:03;1.67;;;0.40;;
10250;SDS011;5170;58.692;12.478;2023-04-03T15:31:51;3.37;;;0.40;;
10250;SDS011;5170;58.692;12.478;2023-04-03T15:34:38;1.70;;;0.40;;
10250;SDS011;5170;58.692;12.478;2023-04-03T15:37:26;4.73;;;0.67;;
10250;SDS011;5170;58.692;12.478;2023-04-03T15:40:15;0.80;;;0.70;;
10250;SDS011;5170;58.692;12.478;2023-04-03T15:43:03;4.43;;;0.40;;
10250;SDS011;5170;58.692;12.478;2023-04-03T15:45:51;1.43;;;0.53;;
10250;SDS011;5170;58.692;12.478;2023-04-03T15:48:39;2.63;;;0.40;;
10250;SDS011;5170;58.692;12.478;2023-04-03T15:51:27;1.67;;;0.80;;
10250;SDS011;5170;58.692;12.478;2023-04-03T15:54:15;1.13;;;0.40;;
10250;SDS011;5170;58.692;12.478;2023-04-03T15:57:04;1.93;;;0.80;;
10250;SDS011;5170;58.692;12.478;2023-04-03T15:59:52;1.00;;;0.50;;
10250;SDS011;5170;58.692;12.478;2023-04-03T16:02:40;0.43;;;0.10;;
10250;SDS011;5170;58.692;12.478;2023-04-03T16:05:27;0.93;;;0.47;;
10250;SDS011;5170;58.692;12.478;2023-04-03T16:08:16;1.43;;;0.40;;
10250;SDS011;5170;58.692;12.478;2023-04-03T16:11:04;1.50;;;0.23;;
10250;SDS011;5170;58.692;12.478;2023-04-03T16:13:53;1.40;;;0.37;;
10250;SDS011;5170;58.692;12.478;2023-04-03T16:16:40;0.97;;;0.50;;
10250;SDS011;5170;58.692;12.478;2023-04-03T16:19:28;1.77;;;0.50;;
10250;SDS011;5170;58.692;12.478;2023-04-03T16:22:16;0.83;;;0.40;;
10250;SDS011;5170;58.692;12.478;2023-04-03T16:25:04;3.43;;;0.90;;
10250;SDS011;5170;58.692;12.478;2023-04-03T16:27:52;2.87;;;0.80;;
10250;SDS011;5170;58.692;12.478;2023-04-03T16:30:41;2.73;;;0.93;;
10250;SDS011;5170;58.692;12.478;2023-04-03T16:33:29;1.70;;;1.20;;
10250;SDS011;5170;58.692;12.478;2023-04-03T16:36:17;3.23;;;0.83;;
10250;SDS011;5170;58.692;12.478;2023-04-03T16:39:04;1.57;;;1.00;;
10250;SDS011;5170;58.692;12.478;2023-04-03T16:41:54;1.23;;;0.70;;
10250;SDS011;5170;58.692;12.478;2023-04-03T16:44:42;2.17;;;0.70;;
10250;SDS011;5170;58.692;12.478;2023-04-03T16:47:31;2.30;;;0.67;;
10250;SDS011;5170;58.692;12.478;2023-04-03T16:50:19;3.70;;;0.90;;
10250;SDS011;5170;58.692;12.478;2023-04-03T16:53:07;2.50;;;0.90;;
10250;SDS011;5170;58.692;12.478;2023-04-03T16:55:56;1.17;;;0.70;;
10250;SDS011;5170;58.692;12.478;2023-04-03T16:58:44;0.47;;;0.40;;
10250;SDS011;5170;58.692;12.478;2023-04-03T17:01:32;2.77;;;0.90;;
10250;SDS011;5170;58.692;12.478;2023-04-03T17:04:21;1.97;;;0.70;;
10250;SDS011;5170;58.692;12.478;2023-04-03T17:07:09;1.33;;;0.67;;
10250;SDS011;5170;58.692;12.478;2023-04-03T17:09:57;1.50;;;1.13;;
10250;SDS011;5170;58.692;12.478;2023-04-03T17:12:45;2.47;;;1.07;;
10250;SDS011;5170;58.692;12.478;2023-04-03T17:15:32;1.37;;;0.73;;